Weather at Doha International Airport

Public forecast

Using degrees Celsius for public forecast. Weather courtesy of forecast.io.

Current aviation weather report (METAR) for Doha International Airport

Report is more than 6 hours old.

2022/11/14 15:30 (retrieved 2 years ago)

OTBD 141530Z 35010KT CAVOK 28/20 Q1016 NOSIG

Aviation forecast (TAF) for Doha International Airport

Forecast is more than 12 hours old.

2023/02/22 18:19 Ammendment (retrieved 1 year ago)

TAF AMD OTBD 221813Z 2218/2324 15006KT CAVOK TEMPO 2218/2306 VRB02KT PROB30 TEMPO 2301/2304 6000 NSC BECMG 2310/2312 11010KT